Flight Track Log - Related Links

Times and Time Zones

All times are in EDT time to prevent confusion due to time zone crossing. See the N214KR flight status page for this flight to view local times or setup timezone preferences in your user account.


Time Position Orientation Groundspeed Altitude Reporting Facility
EDT Latitude Longitude Course Direction KTS MPH feet Rate Location/Type
Sun 09:57:02 PM 33.9000 -84.3167 320° Northwest 122 140 2,100  Level Atlanta TRACON
Sun 09:58:00 PM 33.9483 -84.3632 318° Northwest  Level FlightAware Approximate
Sun 09:58:02 PM 33.9333 -84.3500 320° Northwest 141 162 2,900  Level Atlanta TRACON
Sun 09:58:56 PM 33.9667 -84.3667 337° Northwest 146 168 3,600 750 Climbing Atlanta TRACON
Sun 09:59:00 PM 33.9715 -84.3866 331° Northwest  Level FlightAware Approximate
Sun 10:00:00 PM 34.0130 -84.4142 331° Northwest  Level FlightAware Approximate
Sun 10:00:02 PM 34.0000 -84.4000 320° Northwest 152 175 4,400  Level Atlanta TRACON
Sun 10:01:00 PM 34.0545 -84.4419 331° Northwest  Level FlightAware Approximate
Sun 10:01:02 PM 34.0333 -84.4333 320° Northwest 164 189 5,100  Level Atlanta TRACON
Sun 10:02:00 PM 34.0924 -84.4758 320° Northwest  Level FlightAware Approximate
Sun 10:02:14 PM 34.0833 -84.4667 331° Northwest 163 188 5,800  Level Atlanta TRACON
Sun 10:03:35 PM 34.1336 -84.5106 324° Northwest 166 191 6,600 596 Climbing Atlanta Center
Sun 10:04:35 PM 34.1689 -84.5383 327° Northwest 160 184 7,200 600 Climbing Atlanta Center
Sun 10:05:35 PM 34.2042 -84.5689 324° Northwest 160 184 7,800 600 Climbing Atlanta Center
Sun 10:06:35 PM 34.2397 -84.5942 330° Northwest 160 184 8,400 650 Climbing Atlanta Center
Sun 10:07:35 PM 34.2750 -84.6219 327° Northwest 154 177 9,100 650 Climbing Atlanta Center
Sun 10:08:35 PM 34.3103 -84.6475 329° Northwest 149 171 9,700 450 Climbing Atlanta Center
Sun 10:09:35 PM 34.3500 -84.6778 328° Northwest 154 177 10,000 150 Climbing Atlanta Center
Sun 10:10:35 PM 34.3894 -84.7108 325° Northwest 159 183 10,000 -50 Level Atlanta Center
Sun 10:11:35 PM 34.4308 -84.7414 329° Northwest 165 190 9,900 -50 Descending Atlanta Center
Sun 10:12:35 PM 34.4725 -84.7744 327° Northwest 170 196 9,900  Level Atlanta Center
Sun 10:13:35 PM 34.5139 -84.8078 326° Northwest 170 196 9,900 50 Level Atlanta Center
Sun 10:14:35 PM 34.5556 -84.8383 329° Northwest 170 196 10,000 50 Climbing Atlanta Center
Sun 10:15:35 PM 34.5972 -84.8689 329° Northwest 175 201 10,000 -50 Level Atlanta Center
Sun 10:16:35 PM 34.6386 -84.9047 325° Northwest 175 201 9,900  Descending Atlanta Center
Sun 10:17:35 PM 34.6800 -84.9456 321° Northwest 175 201 10,000 50 Climbing Atlanta Center
Sun 10:18:35 PM 34.7153 -84.9889 315° West 175 201 10,000  Level Atlanta Center
Sun 10:26:08 PM 34.9794 -85.2942 314° West 179 206 10,000  Level Memphis Center
Sun 10:27:00 PM 35.0292 -85.2496 314° West  Level FlightAware Approximate
Sun 10:27:09 PM 35.0222 -85.3442 316° Northwest 179 206 10,000  Level Memphis Center
Sun 10:28:00 PM 35.0609 -85.2895 314° West  Level FlightAware Approximate
Sun 10:28:10 PM 35.0592 -85.3861 317° Northwest 179 206 10,000  Level Memphis Center
Sun 10:29:00 PM 35.0925 -85.3295 314° West  Level FlightAware Approximate
Sun 10:29:11 PM 35.0964 -85.4258 319° Northwest 179 206 9,900  Level Memphis Center
Sun 10:30:00 PM 35.1242 -85.3694 314° West  Level FlightAware Approximate
Sun 10:30:12 PM 35.1294 -85.4706 312° West 179 206 10,000  Level Memphis Center
Sun 10:31:00 PM 35.1558 -85.4094 314° West  Level FlightAware Approximate
Sun 10:31:13 PM 35.1678 -85.5119 319° Northwest 180 207 10,000  Level Memphis Center
Sun 10:36:51 PM 35.3643 -85.7479 316° Northwest 178 205 9,800 -79 Descending FlightAware ADS-B (KMDQ)
Sun 10:37:31 PM 35.3907 -85.7793 316° Northwest 187 215 9,500 -393 Descending FlightAware ADS-B (KMDQ)
Sun 10:37:52 PM 35.4042 -85.7954 316° Northwest 190 219 9,400 -486 Descending FlightAware ADS-B (KMDQ)
Sun 10:38:08 PM 35.4114 -85.8041 316° Northwest 191 220 9,200 -600 Descending FlightAware ADS-B (KMDQ)
Sun 10:38:32 PM 35.4303 -85.8264 316° Northwest 190 219 9,000 -409 Descending FlightAware ADS-B (KMDQ)
Sun 10:38:52 PM 35.4424 -85.8410 316° Northwest 190 219 8,900 -439 Descending FlightAware ADS-B (KMDQ)
Sun 10:39:13 PM 35.4456 -85.8447 316° Northwest 190 219 8,700 -500 Descending FlightAware ADS-B (KMDQ)
Sun 10:39:28 PM 35.4654 -85.8683 316° Northwest 192 221 8,600 -450 Descending FlightAware ADS-B (KMDQ)
Sun 10:39:53 PM 35.4807 -85.8865 316° Northwest 193 222 8,400 -533 Descending FlightAware ADS-B (KMDQ)
Sun 10:40:13 PM 35.4932 -85.9013 316° Northwest 192 221 8,200 -600 Descending FlightAware ADS-B (KMDQ)
Sun 10:40:33 PM 35.5065 -85.9172 316° Northwest 190 219 8,000 -450 Descending FlightAware ADS-B (KMDQ)
Sun 10:40:53 PM 35.5192 -85.9324 316° Northwest 191 220 7,900 -450 Descending FlightAware ADS-B (KMDQ)
Sun 10:41:13 PM 35.5317 -85.9473 316° Northwest 191 220 7,700 -462 Descending FlightAware ADS-B (KMDQ)
Sun 10:41:32 PM 35.5437 -85.9615 316° Northwest 191 220 7,600 -450 Descending FlightAware ADS-B (KMDQ)
Sun 10:41:53 PM 35.5573 -85.9778 316° Northwest 190 219 7,400 -450 Descending FlightAware ADS-B (KMDQ)
Sun 10:42:12 PM 35.5693 -85.9922 316° Northwest 189 217 7,300 -450 Descending FlightAware ADS-B (KMDQ)
Sun 10:42:33 PM 35.5824 -86.0077 315° West 190 219 7,100 -526 Descending FlightAware ADS-B (KMDQ)
Sun 10:43:09 PM 35.6051 -86.0349 316° Northwest 187 215 6,800 -409 Descending FlightAware ADS-B (KMDQ)
Sun 10:44:01 PM 35.6333 -86.0667 316° Northwest 186 214 6,500 -375 Descending Nashville TRACON
Sun 10:45:01 PM 35.6667 -86.1167 309° West 185 213 6,100 -350 Descending Nashville TRACON
Sun 10:46:01 PM 35.7000 -86.1500 321° Northwest 181 208 5,800 -368 Descending Nashville TRACON
Sun 10:46:55 PM 35.7333 -86.2000 309° West 181 208 5,400 -341 Descending Nashville TRACON
Sun 10:47:29 PM 35.7597 -86.2158 334° Northwest 183 211 5,300 -379 Descending Memphis Center
Sun 10:48:30 PM 35.7981 -86.2619 316° Northwest 186 214 4,800 -492 Descending Memphis Center
Sun 10:49:31 PM 35.8350 -86.3081 315° West 186 214 4,300 -545 Descending Memphis Center
Sun 10:50:31 PM 35.8722 -86.3536 315° West 186 214 3,700 -545 Descending Memphis Center
Sun 10:51:32 PM 35.9156 -86.3936 323° Northwest 187 215 3,200 -492 Descending Memphis Center
Sun 10:52:33 PM 35.9644 -86.4264 332° Northwest 194 223 2,700 -443 Descending Memphis Center
Sun 10:53:34 PM 36.0086 -86.4550 332° Northwest 185 213 2,300 -541 Descending Memphis Center
Sun 10:54:35 PM 36.0378 -86.4853 320° Northwest 158 182 1,600 -639 Descending Memphis Center
Sun 10:55:36 PM 36.0325 -86.5175 259° West 128 147 1,000 -443 Descending Memphis Center
Sun 10:56:37 PM 36.0117 -86.5214 189° South 104 120 700 -295 Descending Memphis Center

Login

Don't have an account? Register now (free) for customized features, flight alerts, and more!